sensor_id;sensor_type;location;lat;lon;timestamp;temperature;humidity
37002;DHT22;22913;51.910;8.374;2022-11-15T00:01:58;10.10;99.90
37002;DHT22;22913;51.910;8.374;2022-11-15T00:04:43;10.10;99.90
37002;DHT22;22913;51.910;8.374;2022-11-15T00:07:29;10.10;99.90
37002;DHT22;22913;51.910;8.374;2022-11-15T00:10:15;10.10;99.90
37002;DHT22;22913;51.910;8.374;2022-11-15T00:13:04;10.10;99.90
37002;DHT22;22913;51.910;8.374;2022-11-15T00:15:52;10.20;99.90
37002;DHT22;22913;51.910;8.374;2022-11-15T00:18:38;10.20;99.90
37002;DHT22;22913;51.910;8.374;2022-11-15T00:21:24;10.20;99.90
37002;DHT22;22913;51.910;8.374;2022-11-15T00:24:10;10.20;99.90
37002;DHT22;22913;51.910;8.374;2022-11-15T00:26:56;10.20;99.90
37002;DHT22;22913;51.910;8.374;2022-11-15T00:29:42;10.30;99.90
37002;DHT22;22913;51.910;8.374;2022-11-15T00:32:32;10.30;99.90
37002;DHT22;22913;51.910;8.374;2022-11-15T00:35:18;10.30;99.90
37002;DHT22;22913;51.910;8.374;2022-11-15T00:38:04;10.30;99.90
37002;DHT22;22913;51.910;8.374;2022-11-15T00:40:50;10.40;99.90
37002;DHT22;22913;51.910;8.374;2022-11-15T00:43:36;10.40;99.90
37002;DHT22;22913;51.910;8.374;2022-11-15T00:46:24;10.40;99.90
37002;DHT22;22913;51.910;8.374;2022-11-15T00:49:11;10.40;99.90
37002;DHT22;22913;51.910;8.374;2022-11-15T00:51:56;10.40;99.90
37002;DHT22;22913;51.910;8.374;2022-11-15T00:54:42;10.40;99.90
37002;DHT22;22913;51.910;8.374;2022-11-15T00:57:27;10.40;99.90
37002;DHT22;22913;51.910;8.374;2022-11-15T01:00:14;10.40;99.90
37002;DHT22;22913;51.910;8.374;2022-11-15T01:03:00;10.50;99.90
37002;DHT22;22913;51.910;8.374;2022-11-15T01:05:47;10.50;99.90
37002;DHT22;22913;51.910;8.374;2022-11-15T01:08:33;10.50;99.90
37002;DHT22;22913;51.910;8.374;2022-11-15T01:11:19;10.50;99.90
37002;DHT22;22913;51.910;8.374;2022-11-15T01:14:05;10.60;99.90
37002;DHT22;22913;51.910;8.374;2022-11-15T01:16:51;10.60;99.90
37002;DHT22;22913;51.910;8.374;2022-11-15T01:19:37;10.70;99.90
37002;DHT22;22913;51.910;8.374;2022-11-15T01:22:24;10.70;99.90
37002;DHT22;22913;51.910;8.374;2022-11-15T01:25:10;10.70;99.90
37002;DHT22;22913;51.910;8.374;2022-11-15T01:27:56;10.70;99.90
37002;DHT22;22913;51.910;8.374;2022-11-15T01:30:42;10.70;99.90
37002;DHT22;22913;51.910;8.374;2022-11-15T01:33:27;10.70;99.90
37002;DHT22;22913;51.910;8.374;2022-11-15T01:36:16;10.80;99.90
37002;DHT22;22913;51.910;8.374;2022-11-15T01:39:03;10.80;99.90
37002;DHT22;22913;51.910;8.374;2022-11-15T01:41:51;10.80;99.90
37002;DHT22;22913;51.910;8.374;2022-11-15T01:44:42;10.80;99.90
37002;DHT22;22913;51.910;8.374;2022-11-15T01:47:30;10.80;99.90
37002;DHT22;22913;51.910;8.374;2022-11-15T01:50:19;11.00;99.90
37002;DHT22;22913;51.910;8.374;2022-11-15T01:53:08;10.90;99.90
37002;DHT22;22913;51.910;8.374;2022-11-15T01:55:56;10.90;99.90
37002;DHT22;22913;51.910;8.374;2022-11-15T01:58:44;10.80;99.90
37002;DHT22;22913;51.910;8.374;2022-11-15T02:01:31;10.80;99.90
37002;DHT22;22913;51.910;8.374;2022-11-15T02:04:21;10.80;99.90
37002;DHT22;22913;51.910;8.374;2022-11-15T02:07:10;10.90;99.90
37002;DHT22;22913;51.910;8.374;2022-11-15T02:09:58;10.90;99.90
37002;DHT22;22913;51.910;8.374;2022-11-15T02:12:49;11.00;99.90
37002;DHT22;22913;51.910;8.374;2022-11-15T02:15:43;11.00;99.90
37002;DHT22;22913;51.910;8.374;2022-11-15T02:18:35;11.00;99.90
37002;DHT22;22913;51.910;8.374;2022-11-15T02:21:27;11.00;99.90
37002;DHT22;22913;51.910;8.374;2022-11-15T02:24:36;11.10;99.90
37002;DHT22;22913;51.910;8.374;2022-11-15T02:30:48;11.00;99.90
37002;DHT22;22913;51.910;8.374;2022-11-15T02:33:40;11.10;99.90
37002;DHT22;22913;51.910;8.374;2022-11-15T02:36:38;11.20;99.90
37002;DHT22;22913;51.910;8.374;2022-11-15T02:39:30;11.20;99.90
37002;DHT22;22913;51.910;8.374;2022-11-15T02:42:23;11.30;99.90
37002;DHT22;22913;51.910;8.374;2022-11-15T02:45:31;11.30;99.90
37002;DHT22;22913;51.910;8.374;2022-11-15T02:48:21;11.40;99.90
37002;DHT22;22913;51.910;8.374;2022-11-15T02:51:08;11.40;99.90
37002;DHT22;22913;51.910;8.374;2022-11-15T02:53:55;11.40;99.90
37002;DHT22;22913;51.910;8.374;2022-11-15T02:56:41;11.40;99.90
37002;DHT22;22913;51.910;8.374;2022-11-15T03:03:05;11.50;99.90
37002;DHT22;22913;51.910;8.374;2022-11-15T03:06:03;11.50;99.90
37002;DHT22;22913;51.910;8.374;2022-11-15T03:09:01;11.50;99.90
37002;DHT22;22913;51.910;8.374;2022-11-15T03:11:57;11.50;99.90
37002;DHT22;22913;51.910;8.374;2022-11-15T03:14:51;11.50;99.90
37002;DHT22;22913;51.910;8.374;2022-11-15T03:17:43;11.50;99.90
37002;DHT22;22913;51.910;8.374;2022-11-15T03:20:31;11.50;99.90
37002;DHT22;22913;51.910;8.374;2022-11-15T03:23:19;11.50;99.90
37002;DHT22;22913;51.910;8.374;2022-11-15T03:26:09;11.60;99.90
37002;DHT22;22913;51.910;8.374;2022-11-15T03:29:00;11.60;99.90
37002;DHT22;22913;51.910;8.374;2022-11-15T03:31:52;11.60;99.90
37002;DHT22;22913;51.910;8.374;2022-11-15T03:34:43;11.70;99.90
37002;DHT22;22913;51.910;8.374;2022-11-15T03:37:34;11.60;99.90
37002;DHT22;22913;51.910;8.374;2022-11-15T03:40:29;11.70;99.90
37002;DHT22;22913;51.910;8.374;2022-11-15T03:43:24;11.70;99.90
37002;DHT22;22913;51.910;8.374;2022-11-15T03:46:17;11.70;99.90
37002;DHT22;22913;51.910;8.374;2022-11-15T03:49:08;11.80;99.90
37002;DHT22;22913;51.910;8.374;2022-11-15T03:51:56;11.80;99.90
37002;DHT22;22913;51.910;8.374;2022-11-15T03:54:50;11.80;99.90
37002;DHT22;22913;51.910;8.374;2022-11-15T03:57:37;11.80;99.90
37002;DHT22;22913;51.910;8.374;2022-11-15T04:00:22;11.90;99.90
37002;DHT22;22913;51.910;8.374;2022-11-15T04:03:08;11.90;99.90
37002;DHT22;22913;51.910;8.374;2022-11-15T04:05:53;11.90;99.90
37002;DHT22;22913;51.910;8.374;2022-11-15T04:08:39;11.80;99.90
37002;DHT22;22913;51.910;8.374;2022-11-15T04:11:25;11.80;99.90
37002;DHT22;22913;51.910;8.374;2022-11-15T04:14:12;11.80;99.90
37002;DHT22;22913;51.910;8.374;2022-11-15T04:16:57;11.80;99.90
37002;DHT22;22913;51.910;8.374;2022-11-15T04:19:43;11.70;99.90
37002;DHT22;22913;51.910;8.374;2022-11-15T04:22:46;11.70;99.90
37002;DHT22;22913;51.910;8.374;2022-11-15T04:25:50;11.70;99.90
37002;DHT22;22913;51.910;8.374;2022-11-15T04:28:36;11.70;99.90
37002;DHT22;22913;51.910;8.374;2022-11-15T04:31:44;11.70;99.90
37002;DHT22;22913;51.910;8.374;2022-11-15T04:34:29;11.70;99.90
37002;DHT22;22913;51.910;8.374;2022-11-15T04:37:14;11.70;99.90
37002;DHT22;22913;51.910;8.374;2022-11-15T04:40:00;11.70;99.90
37002;DHT22;22913;51.910;8.374;2022-11-15T04:42:46;11.60;99.90
37002;DHT22;22913;51.910;8.374;2022-11-15T04:45:31;11.60;99.90
37002;DHT22;22913;51.910;8.374;2022-11-15T04:48:18;11.60;99.90
37002;DHT22;22913;51.910;8.374;2022-11-15T04:51:04;11.50;99.90
37002;DHT22;22913;51.910;8.374;2022-11-15T04:53:49;11.60;99.90
37002;DHT22;22913;51.910;8.374;2022-11-15T04:56:35;11.50;99.90
37002;DHT22;22913;51.910;8.374;2022-11-15T04:59:21;11.50;99.90
37002;DHT22;22913;51.910;8.374;2022-11-15T05:02:06;11.50;99.90
37002;DHT22;22913;51.910;8.374;2022-11-15T05:04:54;11.50;99.90
37002;DHT22;22913;51.910;8.374;2022-11-15T05:07:38;11.40;99.90
37002;DHT22;22913;51.910;8.374;2022-11-15T05:10:24;11.40;99.90
37002;DHT22;22913;51.910;8.374;2022-11-15T05:13:09;11.50;99.90
37002;DHT22;22913;51.910;8.374;2022-11-15T05:15:55;11.50;99.90
37002;DHT22;22913;51.910;8.374;2022-11-15T05:18:41;11.60;99.90
37002;DHT22;22913;51.910;8.374;2022-11-15T05:21:29;11.60;99.90
37002;DHT22;22913;51.910;8.374;2022-11-15T05:24:14;11.50;99.90
37002;DHT22;22913;51.910;8.374;2022-11-15T05:27:00;11.60;99.90
37002;DHT22;22913;51.910;8.374;2022-11-15T05:29:46;11.60;99.90
37002;DHT22;22913;51.910;8.374;2022-11-15T05:32:31;11.60;99.90
37002;DHT22;22913;51.910;8.374;2022-11-15T05:35:20;11.60;99.90
37002;DHT22;22913;51.910;8.374;2022-11-15T05:38:09;11.50;99.90
37002;DHT22;22913;51.910;8.374;2022-11-15T05:40:55;11.50;99.90
37002;DHT22;22913;51.910;8.374;2022-11-15T05:43:42;11.60;99.90
37002;DHT22;22913;51.910;8.374;2022-11-15T05:46:29;11.50;99.90
37002;DHT22;22913;51.910;8.374;2022-11-15T05:49:17;11.50;99.90
37002;DHT22;22913;51.910;8.374;2022-11-15T05:52:06;11.50;99.90
37002;DHT22;22913;51.910;8.374;2022-11-15T05:54:55;11.50;99.90
37002;DHT22;22913;51.910;8.374;2022-11-15T05:57:41;11.60;99.90
37002;DHT22;22913;51.910;8.374;2022-11-15T06:00:27;11.60;99.90
37002;DHT22;22913;51.910;8.374;2022-11-15T06:03:13;11.70;99.90
37002;DHT22;22913;51.910;8.374;2022-11-15T06:05:59;11.60;99.90
37002;DHT22;22913;51.910;8.374;2022-11-15T06:08:46;11.60;99.90
37002;DHT22;22913;51.910;8.374;2022-11-15T06:11:33;11.60;99.90
37002;DHT22;22913;51.910;8.374;2022-11-15T06:14:19;11.60;99.90
37002;DHT22;22913;51.910;8.374;2022-11-15T06:17:04;11.60;99.90
37002;DHT22;22913;51.910;8.374;2022-11-15T06:19:50;11.60;99.90
37002;DHT22;22913;51.910;8.374;2022-11-15T06:22:36;11.60;99.90
37002;DHT22;22913;51.910;8.374;2022-11-15T06:25:22;11.60;99.90
37002;DHT22;22913;51.910;8.374;2022-11-15T06:28:09;11.70;99.90
37002;DHT22;22913;51.910;8.374;2022-11-15T06:30:55;11.70;99.90
37002;DHT22;22913;51.910;8.374;2022-11-15T06:33:41;11.70;99.90
37002;DHT22;22913;51.910;8.374;2022-11-15T06:36:27;11.80;99.90
37002;DHT22;22913;51.910;8.374;2022-11-15T06:39:13;11.80;99.90
37002;DHT22;22913;51.910;8.374;2022-11-15T06:41:59;11.80;99.90
37002;DHT22;22913;51.910;8.374;2022-11-15T06:44:46;11.80;99.90
37002;DHT22;22913;51.910;8.374;2022-11-15T06:47:32;11.80;99.90
37002;DHT22;22913;51.910;8.374;2022-11-15T06:50:18;11.80;99.90
37002;DHT22;22913;51.910;8.374;2022-11-15T06:53:04;11.90;99.90
37002;DHT22;22913;51.910;8.374;2022-11-15T06:55:50;11.90;99.90
37002;DHT22;22913;51.910;8.374;2022-11-15T06:58:36;12.00;99.90
37002;DHT22;22913;51.910;8.374;2022-11-15T07:01:23;12.00;99.90
37002;DHT22;22913;51.910;8.374;2022-11-15T07:04:08;12.00;99.90
37002;DHT22;22913;51.910;8.374;2022-11-15T07:06:54;12.10;99.90
37002;DHT22;22913;51.910;8.374;2022-11-15T07:09:40;12.20;99.90
37002;DHT22;22913;51.910;8.374;2022-11-15T07:12:26;12.30;99.90
37002;DHT22;22913;51.910;8.374;2022-11-15T07:15:12;12.20;99.90
37002;DHT22;22913;51.910;8.374;2022-11-15T07:18:02;12.30;99.90
37002;DHT22;22913;51.910;8.374;2022-11-15T07:20:48;12.30;99.90
37002;DHT22;22913;51.910;8.374;2022-11-15T07:23:36;12.30;99.90
37002;DHT22;22913;51.910;8.374;2022-11-15T07:26:21;12.40;99.90
37002;DHT22;22913;51.910;8.374;2022-11-15T07:29:07;12.40;99.90
37002;DHT22;22913;51.910;8.374;2022-11-15T07:31:53;12.50;99.90
37002;DHT22;22913;51.910;8.374;2022-11-15T07:34:40;12.50;99.90
37002;DHT22;22913;51.910;8.374;2022-11-15T07:37:26;12.50;99.90
37002;DHT22;22913;51.910;8.374;2022-11-15T07:40:12;12.60;99.90
37002;DHT22;22913;51.910;8.374;2022-11-15T07:43:02;12.70;99.90
37002;DHT22;22913;51.910;8.374;2022-11-15T07:45:48;12.70;99.90
37002;DHT22;22913;51.910;8.374;2022-11-15T07:48:34;12.70;99.90
37002;DHT22;22913;51.910;8.374;2022-11-15T07:51:21;12.70;99.90
37002;DHT22;22913;51.910;8.374;2022-11-15T07:54:06;12.70;99.90
37002;DHT22;22913;51.910;8.374;2022-11-15T07:56:52;12.70;99.90
37002;DHT22;22913;51.910;8.374;2022-11-15T07:59:37;12.80;99.90
37002;DHT22;22913;51.910;8.374;2022-11-15T08:02:23;12.90;99.90
37002;DHT22;22913;51.910;8.374;2022-11-15T08:05:09;12.90;99.90
37002;DHT22;22913;51.910;8.374;2022-11-15T08:07:56;13.00;99.90
37002;DHT22;22913;51.910;8.374;2022-11-15T08:10:42;13.10;99.90
37002;DHT22;22913;51.910;8.374;2022-11-15T08:13:27;13.10;99.90
37002;DHT22;22913;51.910;8.374;2022-11-15T08:16:13;13.30;99.90
37002;DHT22;22913;51.910;8.374;2022-11-15T08:18:59;13.30;99.90
37002;DHT22;22913;51.910;8.374;2022-11-15T08:21:44;13.40;99.90
37002;DHT22;22913;51.910;8.374;2022-11-15T08:24:32;13.40;99.90
37002;DHT22;22913;51.910;8.374;2022-11-15T08:27:18;13.40;99.90
37002;DHT22;22913;51.910;8.374;2022-11-15T08:30:04;13.50;99.90
37002;DHT22;22913;51.910;8.374;2022-11-15T08:32:52;13.50;99.90
37002;DHT22;22913;51.910;8.374;2022-11-15T08:35:37;13.50;99.90
37002;DHT22;22913;51.910;8.374;2022-11-15T08:38:23;13.60;99.90
37002;DHT22;22913;51.910;8.374;2022-11-15T08:41:13;13.70;99.90
37002;DHT22;22913;51.910;8.374;2022-11-15T08:43:59;13.70;99.90
37002;DHT22;22913;51.910;8.374;2022-11-15T08:46:45;13.70;99.90
37002;DHT22;22913;51.910;8.374;2022-11-15T08:49:31;13.90;99.90
37002;DHT22;22913;51.910;8.374;2022-11-15T08:52:17;14.00;99.90
37002;DHT22;22913;51.910;8.374;2022-11-15T08:55:04;14.10;99.90
37002;DHT22;22913;51.910;8.374;2022-11-15T08:57:52;14.10;99.90
37002;DHT22;22913;51.910;8.374;2022-11-15T09:00:37;14.20;99.90
37002;DHT22;22913;51.910;8.374;2022-11-15T09:03:23;14.30;99.90
37002;DHT22;22913;51.910;8.374;2022-11-15T09:06:09;14.30;99.90
37002;DHT22;22913;51.910;8.374;2022-11-15T09:08:56;14.40;99.90
37002;DHT22;22913;51.910;8.374;2022-11-15T09:11:41;14.40;99.90
37002;DHT22;22913;51.910;8.374;2022-11-15T09:14:29;14.50;99.90
37002;DHT22;22913;51.910;8.374;2022-11-15T09:17:14;14.50;99.90
37002;DHT22;22913;51.910;8.374;2022-11-15T09:20:00;14.60;99.90
37002;DHT22;22913;51.910;8.374;2022-11-15T09:22:45;14.70;99.90
37002;DHT22;22913;51.910;8.374;2022-11-15T09:25:32;14.80;99.90
37002;DHT22;22913;51.910;8.374;2022-11-15T09:28:18;14.80;99.90
37002;DHT22;22913;51.910;8.374;2022-11-15T09:31:05;14.80;99.90
37002;DHT22;22913;51.910;8.374;2022-11-15T09:33:51;14.90;99.90
37002;DHT22;22913;51.910;8.374;2022-11-15T09:36:37;14.90;99.90
37002;DHT22;22913;51.910;8.374;2022-11-15T09:39:22;14.90;99.90
37002;DHT22;22913;51.910;8.374;2022-11-15T09:42:29;14.90;99.90
37002;DHT22;22913;51.910;8.374;2022-11-15T09:45:22;15.10;99.90
37002;DHT22;22913;51.910;8.374;2022-11-15T09:48:25;15.20;99.90
37002;DHT22;22913;51.910;8.374;2022-11-15T09:51:24;15.30;99.90
37002;DHT22;22913;51.910;8.374;2022-11-15T09:54:13;15.30;99.90
37002;DHT22;22913;51.910;8.374;2022-11-15T09:57:06;15.40;99.90
37002;DHT22;22913;51.910;8.374;2022-11-15T10:00:06;15.50;99.90
37002;DHT22;22913;51.910;8.374;2022-11-15T10:03:11;15.50;99.90
37002;DHT22;22913;51.910;8.374;2022-11-15T10:06:01;15.50;99.90
37002;DHT22;22913;51.910;8.374;2022-11-15T10:08:53;15.40;99.90
37002;DHT22;22913;51.910;8.374;2022-11-15T10:11:41;15.60;99.90
37002;DHT22;22913;51.910;8.374;2022-11-15T10:14:28;15.70;99.90
37002;DHT22;22913;51.910;8.374;2022-11-15T10:17:30;15.70;99.90
37002;DHT22;22913;51.910;8.374;2022-11-15T10:20:22;15.90;99.90
37002;DHT22;22913;51.910;8.374;2022-11-15T10:23:13;16.00;99.90
37002;DHT22;22913;51.910;8.374;2022-11-15T10:26:00;16.00;99.90
37002;DHT22;22913;51.910;8.374;2022-11-15T10:28:46;16.00;99.90
37002;DHT22;22913;51.910;8.374;2022-11-15T10:31:31;16.20;99.90
37002;DHT22;22913;51.910;8.374;2022-11-15T10:34:19;16.20;99.90
37002;DHT22;22913;51.910;8.374;2022-11-15T10:37:05;16.40;99.90
37002;DHT22;22913;51.910;8.374;2022-11-15T10:40:03;16.40;99.90
37002;DHT22;22913;51.910;8.374;2022-11-15T10:42:49;16.50;99.90
37002;DHT22;22913;51.910;8.374;2022-11-15T10:45:48;16.60;99.90
37002;DHT22;22913;51.910;8.374;2022-11-15T10:48:37;16.60;99.90
37002;DHT22;22913;51.910;8.374;2022-11-15T10:51:25;16.80;99.90
37002;DHT22;22913;51.910;8.374;2022-11-15T10:54:22;17.10;99.90
37002;DHT22;22913;51.910;8.374;2022-11-15T10:57:13;17.30;99.90
37002;DHT22;22913;51.910;8.374;2022-11-15T11:00:01;17.60;99.90
37002;DHT22;22913;51.910;8.374;2022-11-15T11:02:58;17.70;99.90
37002;DHT22;22913;51.910;8.374;2022-11-15T11:05:44;17.90;99.90
37002;DHT22;22913;51.910;8.374;2022-11-15T11:08:30;18.30;99.90
37002;DHT22;22913;51.910;8.374;2022-11-15T11:11:16;18.30;99.90
37002;DHT22;22913;51.910;8.374;2022-11-15T11:14:12;18.30;99.90
37002;DHT22;22913;51.910;8.374;2022-11-15T11:17:04;18.00;99.90
37002;DHT22;22913;51.910;8.374;2022-11-15T11:20:00;17.70;99.90
37002;DHT22;22913;51.910;8.374;2022-11-15T11:23:03;17.60;99.90
37002;DHT22;22913;51.910;8.374;2022-11-15T11:25:55;18.00;99.90
37002;DHT22;22913;51.910;8.374;2022-11-15T11:28:50;18.00;99.90
37002;DHT22;22913;51.910;8.374;2022-11-15T11:31:43;18.20;99.90
37002;DHT22;22913;51.910;8.374;2022-11-15T11:34:40;18.60;99.90
37002;DHT22;22913;51.910;8.374;2022-11-15T11:37:34;19.00;99.90
37002;DHT22;22913;51.910;8.374;2022-11-15T11:40:29;19.50;99.90
37002;DHT22;22913;51.910;8.374;2022-11-15T11:43:21;19.90;99.90
37002;DHT22;22913;51.910;8.374;2022-11-15T11:46:36;20.20;99.90
37002;DHT22;22913;51.910;8.374;2022-11-15T11:49:32;20.60;99.90
37002;DHT22;22913;51.910;8.374;2022-11-15T11:52:23;20.90;99.90
37002;DHT22;22913;51.910;8.374;2022-11-15T11:55:14;20.70;99.90
37002;DHT22;22913;51.910;8.374;2022-11-15T11:58:06;20.30;99.90
37002;DHT22;22913;51.910;8.374;2022-11-15T12:00:57;20.40;99.90
37002;DHT22;22913;51.910;8.374;2022-11-15T12:03:48;21.00;99.90
37002;DHT22;22913;51.910;8.374;2022-11-15T12:06:49;21.00;99.90
37002;DHT22;22913;51.910;8.374;2022-11-15T12:09:38;21.40;99.90
37002;DHT22;22913;51.910;8.374;2022-11-15T12:12:30;21.50;99.90
37002;DHT22;22913;51.910;8.374;2022-11-15T12:15:19;21.30;99.90
37002;DHT22;22913;51.910;8.374;2022-11-15T12:18:08;21.50;99.90
37002;DHT22;22913;51.910;8.374;2022-11-15T12:21:02;21.70;99.90
37002;DHT22;22913;51.910;8.374;2022-11-15T12:23:53;21.90;99.90
37002;DHT22;22913;51.910;8.374;2022-11-15T12:26:42;22.10;99.90
37002;DHT22;22913;51.910;8.374;2022-11-15T12:29:33;22.30;99.90
37002;DHT22;22913;51.910;8.374;2022-11-15T12:32:26;23.00;99.90
37002;DHT22;22913;51.910;8.374;2022-11-15T12:35:24;23.40;99.90
37002;DHT22;22913;51.910;8.374;2022-11-15T12:38:11;23.00;99.90
37002;DHT22;22913;51.910;8.374;2022-11-15T12:41:15;23.00;99.90
37002;DHT22;22913;51.910;8.374;2022-11-15T12:44:02;23.50;99.90
37002;DHT22;22913;51.910;8.374;2022-11-15T12:47:04;23.80;99.90
37002;DHT22;22913;51.910;8.374;2022-11-15T12:49:50;23.70;99.90
37002;DHT22;22913;51.910;8.374;2022-11-15T12:52:36;23.30;99.90
37002;DHT22;22913;51.910;8.374;2022-11-15T12:55:42;23.50;99.90
37002;DHT22;22913;51.910;8.374;2022-11-15T12:58:41;23.80;99.90
37002;DHT22;22913;51.910;8.374;2022-11-15T13:01:57;23.80;99.90
37002;DHT22;22913;51.910;8.374;2022-11-15T13:04:42;23.20;99.90
37002;DHT22;22913;51.910;8.374;2022-11-15T13:07:57;23.30;99.90
37002;DHT22;22913;51.910;8.374;2022-11-15T13:10:43;23.60;99.90
37002;DHT22;22913;51.910;8.374;2022-11-15T13:13:44;24.00;99.90
37002;DHT22;22913;51.910;8.374;2022-11-15T13:16:30;24.90;99.90
37002;DHT22;22913;51.910;8.374;2022-11-15T13:19:16;24.80;99.90
37002;DHT22;22913;51.910;8.374;2022-11-15T13:22:04;24.40;99.90
37002;DHT22;22913;51.910;8.374;2022-11-15T13:25:15;23.90;99.90
37002;DHT22;22913;51.910;8.374;2022-11-15T13:28:10;24.00;99.90
37002;DHT22;22913;51.910;8.374;2022-11-15T13:30:59;23.70;99.90
37002;DHT22;22913;51.910;8.374;2022-11-15T13:33:45;23.20;99.90
37002;DHT22;22913;51.910;8.374;2022-11-15T13:36:32;23.00;99.90
37002;DHT22;22913;51.910;8.374;2022-11-15T13:39:26;22.90;99.90
37002;DHT22;22913;51.910;8.374;2022-11-15T13:42:14;22.20;99.90
37002;DHT22;22913;51.910;8.374;2022-11-15T13:45:04;22.00;99.90
37002;DHT22;22913;51.910;8.374;2022-11-15T13:47:56;21.80;99.90
37002;DHT22;22913;51.910;8.374;2022-11-15T13:50:42;22.30;99.90
37002;DHT22;22913;51.910;8.374;2022-11-15T13:53:28;22.90;99.90
37002;DHT22;22913;51.910;8.374;2022-11-15T13:56:16;23.00;99.90
37002;DHT22;22913;51.910;8.374;2022-11-15T13:59:09;22.60;99.90
37002;DHT22;22913;51.910;8.374;2022-11-15T14:01:57;22.30;99.90
37002;DHT22;22913;51.910;8.374;2022-11-15T14:04:49;21.70;99.90
37002;DHT22;22913;51.910;8.374;2022-11-15T14:07:36;21.80;99.90
37002;DHT22;22913;51.910;8.374;2022-11-15T14:10:28;22.60;99.90
37002;DHT22;22913;51.910;8.374;2022-11-15T14:13:28;22.40;99.90
37002;DHT22;22913;51.910;8.374;2022-11-15T14:16:19;21.70;99.90
37002;DHT22;22913;51.910;8.374;2022-11-15T14:19:08;21.00;99.90
37002;DHT22;22913;51.910;8.374;2022-11-15T14:22:14;20.70;99.90
37002;DHT22;22913;51.910;8.374;2022-11-15T14:25:15;20.80;99.90
37002;DHT22;22913;51.910;8.374;2022-11-15T14:28:15;20.90;99.90
37002;DHT22;22913;51.910;8.374;2022-11-15T14:31:04;21.00;99.90
37002;DHT22;22913;51.910;8.374;2022-11-15T14:33:53;21.10;99.90
37002;DHT22;22913;51.910;8.374;2022-11-15T14:36:38;20.80;99.90
37002;DHT22;22913;51.910;8.374;2022-11-15T14:39:26;20.40;99.90
37002;DHT22;22913;51.910;8.374;2022-11-15T14:42:11;20.20;99.90
37002;DHT22;22913;51.910;8.374;2022-11-15T14:44:56;19.90;99.90
37002;DHT22;22913;51.910;8.374;2022-11-15T14:47:42;19.60;99.90
37002;DHT22;22913;51.910;8.374;2022-11-15T14:50:28;19.20;99.90
37002;DHT22;22913;51.910;8.374;2022-11-15T14:53:15;18.90;99.90
37002;DHT22;22913;51.910;8.374;2022-11-15T14:56:02;18.80;99.90
37002;DHT22;22913;51.910;8.374;2022-11-15T14:58:48;18.60;99.90
37002;DHT22;22913;51.910;8.374;2022-11-15T15:01:34;18.50;99.90
37002;DHT22;22913;51.910;8.374;2022-11-15T15:04:19;18.30;99.90
37002;DHT22;22913;51.910;8.374;2022-11-15T15:07:05;18.10;99.90
37002;DHT22;22913;51.910;8.374;2022-11-15T15:09:51;17.90;99.90
37002;DHT22;22913;51.910;8.374;2022-11-15T15:12:38;17.70;99.90
37002;DHT22;22913;51.910;8.374;2022-11-15T15:15:26;17.40;99.90
37002;DHT22;22913;51.910;8.374;2022-11-15T15:18:11;17.20;99.90
37002;DHT22;22913;51.910;8.374;2022-11-15T15:20:58;17.00;99.90
37002;DHT22;22913;51.910;8.374;2022-11-15T15:23:47;16.90;99.90
37002;DHT22;22913;51.910;8.374;2022-11-15T15:26:32;16.90;99.90
37002;DHT22;22913;51.910;8.374;2022-11-15T15:29:21;16.80;99.90
37002;DHT22;22913;51.910;8.374;2022-11-15T15:32:08;16.60;99.90
37002;DHT22;22913;51.910;8.374;2022-11-15T15:34:53;16.50;99.90
37002;DHT22;22913;51.910;8.374;2022-11-15T15:37:40;16.40;99.90
37002;DHT22;22913;51.910;8.374;2022-11-15T15:40:28;16.40;99.90
37002;DHT22;22913;51.910;8.374;2022-11-15T15:43:13;16.30;99.90
37002;DHT22;22913;51.910;8.374;2022-11-15T15:46:00;16.00;99.90
37002;DHT22;22913;51.910;8.374;2022-11-15T15:48:46;15.90;99.90
37002;DHT22;22913;51.910;8.374;2022-11-15T15:51:32;15.70;99.90
37002;DHT22;22913;51.910;8.374;2022-11-15T15:54:17;15.60;99.90
37002;DHT22;22913;51.910;8.374;2022-11-15T15:57:03;15.50;99.90
37002;DHT22;22913;51.910;8.374;2022-11-15T15:59:49;15.50;99.90
37002;DHT22;22913;51.910;8.374;2022-11-15T16:02:36;15.30;99.90
37002;DHT22;22913;51.910;8.374;2022-11-15T16:05:22;15.30;99.90
37002;DHT22;22913;51.910;8.374;2022-11-15T16:08:16;15.20;99.90
37002;DHT22;22913;51.910;8.374;2022-11-15T16:11:02;15.10;99.90
37002;DHT22;22913;51.910;8.374;2022-11-15T16:13:50;15.00;99.90
37002;DHT22;22913;51.910;8.374;2022-11-15T16:16:36;14.80;99.90
37002;DHT22;22913;51.910;8.374;2022-11-15T16:19:23;14.80;99.90
37002;DHT22;22913;51.910;8.374;2022-11-15T16:22:09;14.60;99.90
37002;DHT22;22913;51.910;8.374;2022-11-15T16:24:54;14.60;99.90
37002;DHT22;22913;51.910;8.374;2022-11-15T16:27:40;14.50;99.90
37002;DHT22;22913;51.910;8.374;2022-11-15T16:30:29;14.40;99.90
37002;DHT22;22913;51.910;8.374;2022-11-15T16:33:15;14.30;99.90
37002;DHT22;22913;51.910;8.374;2022-11-15T16:36:06;14.30;99.90
37002;DHT22;22913;51.910;8.374;2022-11-15T16:38:58;14.10;99.90
37002;DHT22;22913;51.910;8.374;2022-11-15T16:41:44;14.10;99.90
37002;DHT22;22913;51.910;8.374;2022-11-15T16:44:31;14.10;99.90
37002;DHT22;22913;51.910;8.374;2022-11-15T16:47:17;14.10;99.90
37002;DHT22;22913;51.910;8.374;2022-11-15T16:50:04;14.00;99.90
37002;DHT22;22913;51.910;8.374;2022-11-15T16:52:52;14.00;99.90
37002;DHT22;22913;51.910;8.374;2022-11-15T16:55:38;13.90;99.90
37002;DHT22;22913;51.910;8.374;2022-11-15T16:58:24;13.90;99.90
37002;DHT22;22913;51.910;8.374;2022-11-15T17:01:16;13.80;99.90
37002;DHT22;22913;51.910;8.374;2022-11-15T17:04:02;13.90;99.90
37002;DHT22;22913;51.910;8.374;2022-11-15T17:06:55;13.90;99.90
37002;DHT22;22913;51.910;8.374;2022-11-15T17:09:42;13.90;99.90
37002;DHT22;22913;51.910;8.374;2022-11-15T17:12:27;13.90;99.90
37002;DHT22;22913;51.910;8.374;2022-11-15T17:15:13;13.90;99.90
37002;DHT22;22913;51.910;8.374;2022-11-15T17:17:59;13.80;99.90
37002;DHT22;22913;51.910;8.374;2022-11-15T17:20:45;13.80;99.90
37002;DHT22;22913;51.910;8.374;2022-11-15T17:23:31;13.80;99.90
37002;DHT22;22913;51.910;8.374;2022-11-15T17:26:19;13.80;99.90
37002;DHT22;22913;51.910;8.374;2022-11-15T17:29:05;13.80;99.90
37002;DHT22;22913;51.910;8.374;2022-11-15T17:31:51;13.70;99.90
37002;DHT22;22913;51.910;8.374;2022-11-15T17:34:37;13.80;99.90
37002;DHT22;22913;51.910;8.374;2022-11-15T17:37:23;13.80;99.90
37002;DHT22;22913;51.910;8.374;2022-11-15T17:40:09;13.80;99.90
37002;DHT22;22913;51.910;8.374;2022-11-15T17:42:56;13.80;99.90
37002;DHT22;22913;51.910;8.374;2022-11-15T17:45:41;13.80;99.90
37002;DHT22;22913;51.910;8.374;2022-11-15T17:48:29;13.80;99.90
37002;DHT22;22913;51.910;8.374;2022-11-15T17:51:15;13.90;99.90
37002;DHT22;22913;51.910;8.374;2022-11-15T17:54:01;13.90;99.90